Data for 10/20/2013

Time Sea-Level Adjusted Pressure Absolute Pressure Temperature Relative Humidity Dew Point   
(mb) (inHg) (mb) (inHg) (C) (F) (%) (C) (F)
00:05 1018 30.06 848 25.04 8.4 47.2 42 -3.9 25
00:10 1018 30.06 848 25.04 8.4 47.1 42 -3.9 25
00:15 1018 30.06 848 25.04 8.4 47.1 42 -3.8 25.1
00:20 1019 30.09 848 25.04 8.4 47.2 42 -3.7 25.3
00:25 1019 30.09 848 25.04 8.4 47.1 42 -3.7 25.3
00:30 1019 30.09 848 25.04 8.3 47 42 -3.7 25.3
00:35 1019 30.09 848 25.04 8.3 47 43 -3.5 25.7
00:40 1019 30.09 848 25.04 8.3 46.9 44 -3.3 26.1
00:45 1019 30.09 848 25.04 8.3 46.9 44 -3.2 26.2
00:50 1019 30.09 848 25.04 8.2 46.8 44 -3.2 26.3
00:55 1019 30.09 848 25.04 8.2 46.7 45 -3.1 26.5
01:00 1019 30.09 848 25.04 8.1 46.6 46 -2.8 26.9
01:05 1019 30.09 848 25.04 8 46.5 47 -2.7 27.2
01:10 1019 30.09 848 25.04 8 46.3 47 -2.7 27.2
01:15 1019 30.09 848 25.04 7.8 46.1 48 -2.5 27.4
01:20 1019 30.09 848 25.04 7.8 46 49 -2.3 27.9
01:25 1019 30.09 848 25.04 7.8 46 49 -2.2 28
01:30 1019 30.09 848 25.04 7.8 46.1 49 -2.3 27.9
01:35 1019 30.09 849 25.07 7.9 46.3 49 -2 28.3
01:40 1019 30.09 849 25.07 7.9 46.3 50 -1.9 28.6
01:45 1020 30.12 849 25.07 7.9 46.2 50 -1.8 28.7
01:50 1020 30.12 849 25.07 7.8 46.1 51 -1.7 28.9
01:55 1020 30.12 849 25.07 7.7 45.9 52 -1.6 29.1
02:00 1020 30.12 849 25.07 7.5 45.5 53 -1.3 29.6
02:05 1020 30.12 849 25.07 7.2 45 56 -1.1 30.1
02:10 1020 30.12 849 25.07 7 44.6 57 -0.9 30.3
02:15 1020 30.12 849 25.07 6.8 44.3 59 -0.7 30.8
02:20 1020 30.12 849 25.07 6.6 43.9 59 -0.8 30.5
02:25 1020 30.12 849 25.07 6.5 43.7 60 -0.8 30.5
02:30 1020 30.12 849 25.07 6.4 43.6 59 -0.9 30.5
02:35 1020 30.12 849 25.07 6.4 43.5 60 -0.7 30.7
02:40 1020 30.12 849 25.07 6.1 43 62 -0.6 30.8
02:45 1020 30.12 849 25.07 6 42.8 61 -0.9 30.3
02:50 1020 30.12 849 25.07 6.2 43.1 60 -0.9 30.4
02:55 1020 30.12 849 25.07 6.2 43.1 60 -1 30.1
03:00 1020 30.12 849 25.07 6.2 43.1 60 -1 30.2
03:05 1020 30.12 849 25.07 6.2 43.1 63 -0.4 31.3
03:10 1020 30.12 849 25.07 6 42.9 64 -0.3 31.5
03:15 1020 30.12 849 25.07 6 42.7 63 -0.5 31
03:20 1020 30.12 849 25.07 5.9 42.7 64 -0.4 31.2
03:25 1020 30.12 849 25.07 5.8 42.4 65 -0.3 31.4
03:30 1020 30.12 849 25.07 5.8 42.4 66 -0.1 31.8
03:35 1020 30.12 849 25.07 5.7 42.2 65 -0.4 31.2
03:40 1020 30.12 849 25.07 5.6 42 67 -0.2 31.7
03:45 1020 30.12 849 25.07 5.5 41.8 68 -0 31.9
03:50 1020 30.12 849 25.07 5.4 41.7 69 0.2 32.3
03:55 1020 30.12 849 25.07 5.3 41.5 69 0 32.1
04:00 1020 30.12 849 25.07 5.2 41.4 69 0 32.1
04:05 1020 30.12 849 25.07 5.3 41.5 68 -0.1 31.9
04:10 1020 30.12 849 25.07 5.3 41.6 67 -0.3 31.4
04:15 1020 30.12 849 25.07 5.4 41.8 67 -0.2 31.6
04:20 1020 30.12 849 25.07 5.5 41.8 66 -0.3 31.4
04:25 1020 30.12 849 25.07 5.5 41.8 67 -0.1 31.7
04:30 1020 30.12 849 25.07 5.4 41.7 68 -0 31.9
04:35 1020 30.12 850 25.1 5.3 41.5 70 0.2 32.3
04:40 1020 30.12 850 25.1 5.2 41.3 72 0.5 32.9
04:45 1020 30.12 850 25.1 4.9 40.7 71 0 32.1
04:50 1020 30.12 850 25.1 4.8 40.6 72 0.3 32.5
04:55 1020 30.12 850 25.1 4.7 40.5 74 0.4 32.7
05:00 1020 30.12 850 25.1 4.7 40.4 73 0.1 32.3
05:05 1021 30.15 850 25.1 4.7 40.5 73 0.2 32.3
05:10 1021 30.15 850 25.1 4.8 40.6 73 0.3 32.6
05:15 1021 30.15 850 25.1 4.7 40.5 74 0.5 32.8
05:20 1021 30.15 850 25.1 4.7 40.4 75 0.7 33.2
05:25 1021 30.15 850 25.1 4.6 40.3 76 0.7 33.3
05:30 1021 30.15 850 25.1 4.5 40.2 77 0.8 33.5
05:35 1021 30.15 850 25.1 4.5 40 77 0.8 33.4
05:40 1021 30.15 850 25.1 4.5 40.1 76 0.7 33.2
05:45 1021 30.15 850 25.1 4.6 40.2 76 0.7 33.3
05:50 1021 30.15 850 25.1 4.6 40.3 76 0.7 33.3
05:55 1021 30.15 850 25.1 4.6 40.2 76 0.7 33.2
06:00 1021 30.15 850 25.1 4.6 40.2 75 0.5 32.9
06:05 1021 30.15 850 25.1 4.6 40.2 75 0.5 33
06:10 1021 30.15 850 25.1 4.6 40.2 75 0.6 33.1
06:15 1021 30.15 850 25.1 4.6 40.2 75 0.5 32.8
06:20 1021 30.15 850 25.1 4.6 40.3 75 0.5 32.9
06:25 1021 30.15 850 25.1 4.6 40.3 75 0.5 32.9
06:30 1021 30.15 850 25.1 4.6 40.3 75 0.5 32.9
06:35 1021 30.15 850 25.1 4.6 40.3 75 0.5 32.8
06:40 1021 30.15 850 25.1 4.5 40.2 75 0.5 32.9
06:45 1021 30.15 850 25.1 4.5 40.1 75 0.5 32.8
06:50 1021 30.15 850 25.1 4.5 40.1 75 0.5 32.9
06:55 1021 30.15 850 25.1 4.4 39.9 76 0.6 33.1
07:00 1021 30.15 850 25.1 4.3 39.7 76 0.4 32.7
07:05 1021 30.15 850 25.1 4.2 39.6 77 0.5 32.9
07:10 1021 30.15 850 25.1 4.2 39.6 76 0.3 32.6
07:15 1021 30.15 850 25.1 4.4 39.9 74 0.2 32.4
07:20 1021 30.15 850 25.1 4.5 40.1 74 0.3 32.5
07:25 1021 30.15 850 25.1 4.5 40.1 74 0.4 32.7
07:30 1021 30.15 850 25.1 4.6 40.2 74 0.4 32.6
07:35 1021 30.15 850 25.1 4.6 40.2 74 0.3 32.5
07:40 1021 30.15 850 25.1 4.6 40.3 73 0.2 32.3
07:45 1021 30.15 850 25.1 4.7 40.5 73 0.3 32.5
07:50 1021 30.15 851 25.13 4.8 40.7 71 -0 32
07:55 1021 30.15 851 25.13 4.9 40.8 71 -0 32
08:00 1021 30.15 851 25.13 5 41 71 0.2 32.3
08:05 1021 30.15 851 25.13 5 41.1 71 0.3 32.5
08:10 1021 30.15 851 25.13 5 40.9 71 0.2 32.3
08:15 1021 30.15 851 25.13 4.9 40.9 71 0.1 32.1
08:20 1021 30.15 851 25.13 5 41 71 0.2 32.3
08:25 1021 30.15 851 25.13 5.1 41.3 70 0.2 32.3
08:30 1021 30.15 851 25.13 5.2 41.4 69 0 32.1
08:35 1021 30.15 851 25.13 5.3 41.5 69 0.1 32.1
08:40 1021 30.15 851 25.13 5.4 41.7 68 0 32
08:45 1021 30.15 851 25.13 5.4 41.8 67 -0.1 31.8
08:50 1021 30.15 851 25.13 5.5 41.8 67 -0.2 31.6
08:55 1021 30.15 851 25.13 5.7 42.3 66 -0.2 31.7
09:00 1021 30.15 851 25.13 6 42.8 65 -0.2 31.7
09:05 1021 30.15 851 25.13 6.2 43.2 63 -0.2 31.6
09:10 1021 30.15 851 25.13 6.8 44.2 63 0.2 32.3
09:15 1021 30.15 851 25.13 6.7 44.1 62 -0 31.9
09:20 1021 30.15 851 25.13 6.9 44.3 60 -0.4 31.3
09:25 1021 30.15 851 25.13 6.8 44.2 61 -0.2 31.6
09:30 1021 30.15 851 25.13 6.7 44.1 61 -0.3 31.5
09:35 1021 30.15 851 25.13 7 44.6 60 -0.3 31.5
09:40 1022 30.18 851 25.13 7.2 45 59 -0.3 31.5
09:45 1022 30.18 851 25.13 7.3 45.1 58 -0.5 31
09:50 1021 30.15 851 25.13 7.4 45.3 58 -0.4 31.3
09:55 1021 30.15 851 25.13 7.5 45.5 56 -0.6 31
10:00 1021 30.15 851 25.13 7.6 45.7 57 -0.5 31.2
10:05 1021 30.15 851 25.13 7.8 46 55 -0.6 30.9
10:10 1021 30.15 851 25.13 8 46.4 54 -0.6 30.9
10:15 1021 30.15 851 25.13 8.2 46.7 55 -0.3 31.5
10:20 1021 30.15 851 25.13 7.9 46.1 56 -0.5 31.2
10:25 1021 30.15 851 25.13 7.5 45.4 55 -0.9 30.4
10:30 1021 30.15 850 25.1 7.8 46 54 -0.9 30.4
10:35 1021 30.15 851 25.13 8 46.4 54 -0.8 30.6
10:40 1021 30.15 851 25.13 7.4 45.3 54 -1.2 29.8
10:45 1021 30.15 851 25.13 7.8 46 53 -1.1 30
10:50 1021 30.15 851 25.13 8.4 47.2 50 -1.4 29.5
10:55 1021 30.15 851 25.13 8.9 48 48 -1.4 29.6
11:00 1021 30.15 851 25.13 9.2 48.5 49 -1 30.2
11:05 1021 30.15 851 25.13 9 48.2 49 -1.1 30.1
11:10 1021 30.15 850 25.1 9 48.3 48 -1.2 29.8
11:15 1021 30.15 850 25.1 9 48.2 49 -1.2 29.9
11:20 1021 30.15 850 25.1 8.9 48.1 49 -1 30.1
11:25 1021 30.15 850 25.1 9 48.2 49 -1 30.2
11:30 1021 30.15 850 25.1 9.5 49.2 48 -0.8 30.5
11:35 1021 30.15 850 25.1 9.7 49.4 48 -0.9 30.4
11:40 1021 30.15 850 25.1 9.4 49 48 -1.1 30
11:45 1021 30.15 850 25.1 9.3 48.7 48 -1.1 30.1
11:50 1021 30.15 850 25.1 9.2 48.6 49 -0.9 30.3
11:55 1021 30.15 850 25.1 9.3 48.8 52 0 32
12:00 1021 30.15 850 25.1 9.6 49.3 47 -1.2 29.9
12:05 1021 30.15 850 25.1 9.8 49.6 46 -1.2 29.9
12:10 1021 30.15 850 25.1 9.8 49.6 46 -1.2 29.8
12:15 1021 30.15 850 25.1 10.2 50.3 45 -1.2 29.8
12:20 1021 30.15 850 25.1 10.3 50.5 46 -0.8 30.5
12:25 1021 30.15 850 25.1 10.1 50.3 46 -1 30.3
12:30 1021 30.15 850 25.1 10.3 50.5 44 -1.3 29.7
12:35 1021 30.15 850 25.1 9.5 49.1 48 -0.9 30.4
12:40 1021 30.15 850 25.1 9.9 49.9 46 -1.2 29.8
12:45 1021 30.15 850 25.1 10.3 50.5 44 -1.5 29.3
12:50 1021 30.15 850 25.1 10.5 50.8 44 -1.2 29.9
12:55 1021 30.15 850 25.1 9.8 49.6 45 -1.5 29.4
13:00 1020 30.12 850 25.1 10.4 50.8 42 -1.9 28.5
13:05 1020 30.12 850 25.1 10.9 51.6 42 -1.4 29.4
13:10 1020 30.12 850 25.1 10.7 51.3 41 -1.9 28.6
13:15 1020 30.12 849 25.07 11.2 52.2 41 -1.6 29.2
13:20 1020 30.12 849 25.07 11.5 52.7 41 -1.1 30
13:25 1020 30.12 849 25.07 10.9 51.7 42 -1.5 29.4
13:30 1020 30.12 849 25.07 10.9 51.7 41 -1.7 28.9
13:35 1020 30.12 849 25.07 10.8 51.5 40 -2.2 28
13:40 1020 30.12 849 25.07 11.4 52.4 39 -2 28.5
13:45 1020 30.12 849 25.07 11.5 52.7 38 -2.2 28.1
13:50 1020 30.12 849 25.07 11.8 53.2 37 -2.4 27.6
13:55 1020 30.12 849 25.07 11.9 53.4 36 -2.5 27.5
14:00 1020 30.12 849 25.07 12 53.5 38 -1.8 28.7
14:05 1020 30.12 849 25.07 11.3 52.3 38 -2.4 27.7
14:10 1020 30.12 849 25.07 11.5 52.7 37 -2.7 27.2
14:15 1020 30.12 849 25.07 11.7 53.1 40 -1.5 29.4
14:20 1020 30.12 849 25.07 10.6 51.1 42 -1.8 28.7
14:25 1020 30.12 849 25.07 11.2 52.2 37 -2.7 27.1
14:30 1020 30.12 849 25.07 12.1 53.7 37 -2.1 28.2
14:35 1020 30.12 849 25.07 12.3 54.1 36 -2.2 28.1
14:40 1020 30.12 849 25.07 12.4 54.4 36 -2.1 28.2
14:45 1020 30.12 849 25.07 12.9 55.3 34 -2.3 27.8
14:50 1020 30.12 849 25.07 12.2 54 37 -2 28.4
14:55 1020 30.12 849 25.07 12.2 54 37 -2 28.5
15:00 1020 30.12 849 25.07 12.1 53.9 36 -2.5 27.5
15:05 1020 30.12 849 25.07 12.2 53.9 36 -2.3 27.8
15:10 1020 30.12 849 25.07 12.4 54.3 35 -2.7 27.1
15:15 1020 30.12 849 25.07 12.2 54 36 -2.4 27.6
15:20 1020 30.12 849 25.07 12.4 54.2 35 -2.6 27.4
15:25 1020 30.12 849 25.07 12.2 54 35 -2.7 27.1
15:30 1020 30.12 849 25.07 12.4 54.2 34 -2.9 26.7
15:35 1020 30.12 849 25.07 12.6 54.7 34 -2.8 26.9
15:40 1020 30.12 849 25.07 12.3 54.1 34 -3 26.5
15:45 1020 30.12 849 25.07 12.3 54.1 36 -2.5 27.5
15:50 1020 30.12 849 25.07 12.1 53.7 35 -2.9 26.7
15:55 1020 30.12 849 25.07 12.2 53.9 36 -2.4 27.6
16:00 1020 30.12 849 25.07 11.8 53.2 38 -2.1 28.1
16:05 1020 30.12 849 25.07 11.7 53 35 -3 26.5
16:10 1020 30.12 849 25.07 12.2 53.9 35 -2.9 26.7
16:15 1020 30.12 849 25.07 12.2 53.9 34 -3 26.6
16:20 1020 30.12 849 25.07 12.1 53.7 34 -3.1 26.5
16:25 1020 30.12 849 25.07 12.1 53.9 34 -3.1 26.4
16:30 1020 30.12 849 25.07 12.1 53.7 36 -2.6 27.4
16:35 1020 30.12 849 25.07 11.6 52.8 36 -2.9 26.7
16:40 1020 30.12 849 25.07 11.4 52.5 37 -2.8 27
16:45 1020 30.12 849 25.07 11.6 52.8 36 -3.1 26.4
16:50 1020 30.12 849 25.07 11.6 52.9 36 -3 26.6
16:55 1020 30.12 849 25.07 11.6 52.8 36 -3.1 26.4
17:00 1020 30.12 849 25.07 11.5 52.7 36 -3 26.5
17:05 1020 30.12 849 25.07 11.4 52.6 36 -3 26.5
17:10 1020 30.12 849 25.07 11.3 52.4 37 -2.9 26.7
17:15 1020 30.12 849 25.07 11 51.9 38 -2.6 27.3
17:20 1020 30.12 849 25.07 10.8 51.4 39 -2.6 27.4
17:25 1020 30.12 849 25.07 10.4 50.7 40 -2.4 27.6
17:30 1020 30.12 849 25.07 9.9 49.8 42 -2.4 27.7
17:35 1020 30.12 849 25.07 9.4 49 43 -2.5 27.6
17:40 1020 30.12 849 25.07 9.2 48.5 47 -1.5 29.2
17:45 1020 30.12 849 25.07 8.4 47.1 51 -1.2 29.8
17:50 1020 30.12 849 25.07 7.8 46 53 -1.3 29.6
17:55 1020 30.12 849 25.07 7.4 45.3 54 -1.3 29.7
18:00 1020 30.12 849 25.07 7 44.5 55 -1.4 29.4
18:05 1020 30.12 849 25.07 6.7 44.1 56 -1.4 29.5
18:10 1020 30.12 849 25.07 6.5 43.7 57 -1.5 29.3
18:15 1020 30.12 849 25.07 6.3 43.3 57 -1.6 29.2
18:20 1020 30.12 849 25.07 6.1 42.9 58 -1.6 29.1
18:25 1020 30.12 849 25.07 5.9 42.5 59 -1.6 29.2
18:30 1020 30.12 849 25.07 5.5 42 60 -1.5 29.2
18:35 1020 30.12 849 25.07 5.4 41.7 61 -1.5 29.3
18:40 1020 30.12 849 25.07 5 41.1 63 -1.5 29.3
18:45 1020 30.12 849 25.07 4.8 40.6 63 -1.7 28.9
18:50 1020 30.12 849 25.07 4.7 40.5 62 -1.9 28.6
18:55 1020 30.12 849 25.07 4.8 40.7 62 -1.8 28.7
19:00 1020 30.12 849 25.07 4.8 40.6 62 -1.9 28.6
19:05 1020 30.12 849 25.07 4.6 40.4 63 -1.8 28.7
19:10 1020 30.12 849 25.07 4.4 39.9 65 -1.7 29
19:15 1020 30.12 849 25.07 4.1 39.3 66 -1.8 28.8
19:20 1020 30.12 850 25.1 3.9 39.1 66 -1.8 28.7
19:25 1020 30.12 850 25.1 3.8 38.9 67 -1.8 28.7
19:30 1020 30.12 850 25.1 3.8 38.8 66 -2.1 28.3
19:35 1020 30.12 850 25.1 3.9 39 64 -2.2 28.1
19:40 1020 30.12 850 25.1 4.2 39.6 61 -2.6 27.4
19:45 1020 30.12 850 25.1 4.7 40.5 60 -2.4 27.7
19:50 1020 30.12 850 25.1 4.9 40.9 58 -2.6 27.3
19:55 1020 30.12 850 25.1 5.2 41.4 58 -2.3 27.9
20:00 1020 30.12 850 25.1 5.1 41.3 59 -2.3 27.9
20:05 1021 30.15 850 25.1 4.8 40.6 61 -2 28.4
20:10 1021 30.15 850 25.1 4.4 40 63 -2.1 28.3
20:15 1021 30.15 850 25.1 4.2 39.6 64 -2 28.4
20:20 1021 30.15 850 25.1 4.1 39.4 64 -2 28.4
20:25 1021 30.15 850 25.1 4 39.2 65 -2 28.4
20:30 1021 30.15 850 25.1 4 39.3 64 -2.1 28.3
20:35 1021 30.15 850 25.1 4.2 39.5 64 -2 28.3
20:40 1021 30.15 850 25.1 4.3 39.7 63 -2.1 28.3
20:45 1021 30.15 850 25.1 4.4 39.9 62 -2.3 27.9
20:50 1021 30.15 850 25.1 4.7 40.4 60 -2.4 27.6
20:55 1021 30.15 850 25.1 5 41.1 59 -2.4 27.7
21:00 1021 30.15 850 25.1 5 41 59 -2.3 27.9
21:05 1021 30.15 850 25.1 4.7 40.5 62 -2 28.4
21:10 1021 30.15 850 25.1 4.5 40 61 -2.5 27.6
21:15 1021 30.15 850 25.1 4.5 40.1 61 -2.5 27.5
21:20 1021 30.15 850 25.1 4.2 39.5 63 -2.3 27.8
21:25 1021 30.15 850 25.1 4 39.2 63 -2.3 27.8
21:30 1021 30.15 850 25.1 4 39.2 63 -2.5 27.5
21:35 1021 30.15 850 25.1 4.3 39.7 61 -2.6 27.3
21:40 1021 30.15 850 25.1 4.4 39.9 61 -2.4 27.7
21:45 1021 30.15 850 25.1 4.1 39.3 63 -2.4 27.7
21:50 1021 30.15 850 25.1 4.1 39.3 61 -2.7 27.1
21:55 1021 30.15 850 25.1 4.2 39.6 62 -2.5 27.5
22:00 1021 30.15 850 25.1 4.1 39.3 62 -2.5 27.5
22:05 1021 30.15 850 25.1 3.9 39 63 -2.5 27.6
22:10 1021 30.15 850 25.1 3.8 38.8 64 -2.5 27.5
22:15 1021 30.15 850 25.1 3.8 38.8 64 -2.4 27.7
22:20 1021 30.15 850 25.1 3.6 38.5 64 -2.5 27.6
22:25 1021 30.15 851 25.13 3.2 37.7 68 -2.2 28
22:30 1021 30.15 851 25.13 2.9 37.3 68 -2.4 27.6
22:35 1021 30.15 851 25.13 3 37.4 67 -2.5 27.5
22:40 1021 30.15 851 25.13 3.2 37.8 66 -2.6 27.4
22:45 1021 30.15 851 25.13 3.5 38.2 65 -2.5 27.4
22:50 1021 30.15 851 25.13 3.7 38.6 63 -2.7 27.2
22:55 1021 30.15 851 25.13 4 39.1 63 -2.5 27.4
23:00 1021 30.15 851 25.13 4 39.2 62 -2.5 27.5
23:05 1022 30.18 851 25.13 4 39.2 63 -2.3 27.8
23:10 1022 30.18 851 25.13 4.2 39.6 62 -2.4 27.8
23:15 1022 30.18 851 25.13 4.6 40.3 62 -2.1 28.2
23:20 1022 30.18 851 25.13 4.6 40.3 62 -2 28.4
23:25 1022 30.18 851 25.13 4.5 40.2 63 -1.8 28.7
23:30 1022 30.18 851 25.13 4.6 40.3 63 -1.8 28.8
23:35 1022 30.18 851 25.13 4.5 40.2 64 -1.8 28.8
23:40 1022 30.18 851 25.13 4.7 40.4 62 -2.1 28.3
23:45 1022 30.18 851 25.13 5 41.1 60 -2.1 28.2
23:50 1022 30.18 851 25.13 5.3 41.6 60 -1.9 28.6
23:55 1022 30.18 851 25.13 5.3 41.6 60 -1.9 28.6
24:00 1022 30.18 851 25.13 5.2 41.3 61 -1.7 29